Terminal Aerodrome Forecast
Issued by NWS Detroit/Pontiac, MI

Home | Current Version | Previous Version | Text Only | Print | Product List | Glossary On
Versions: 1 2 3 4 5 6 7 8 9 10 11 12 13 14 15 16 17 18
000
FTUS43 KDTX 211120
TAFFNT
TAF
KFNT 211120Z 2112/2212 VRB02KT 5SM BR OVC030
     FM211400 20004KT P6SM OVC030
     FM211800 18005KT P6SM SCT030 BKN050
     FM212200 15006KT P6SM BKN050
     FM220300 15007KT P6SM SCT050=

USA.gov is the U.S. government's official web portal to all federal, state and local government web resources and services.